sensor_id;sensor_type;location;lat;lon;timestamp;temperature;humidity
31443;SHT31;18065;55.876;9.830;2024-03-02T00:02:11;20.54;47.14
31443;SHT31;18065;55.876;9.830;2024-03-02T00:04:40;20.54;47.18
31443;SHT31;18065;55.876;9.830;2024-03-02T00:07:09;20.56;47.16
31443;SHT31;18065;55.876;9.830;2024-03-02T00:09:41;20.53;47.16
31443;SHT31;18065;55.876;9.830;2024-03-02T00:12:11;20.56;47.15
31443;SHT31;18065;55.876;9.830;2024-03-02T00:14:43;20.53;47.18
31443;SHT31;18065;55.876;9.830;2024-03-02T00:17:20;20.54;47.16
31443;SHT31;18065;55.876;9.830;2024-03-02T00:19:50;20.54;47.18
31443;SHT31;18065;55.876;9.830;2024-03-02T00:22:19;20.51;47.18
31443;SHT31;18065;55.876;9.830;2024-03-02T00:24:50;20.51;47.23
31443;SHT31;18065;55.876;9.830;2024-03-02T00:27:19;20.53;47.23
31443;SHT31;18065;55.876;9.830;2024-03-02T00:29:50;20.53;47.20
31443;SHT31;18065;55.876;9.830;2024-03-02T00:32:19;20.50;47.25
31443;SHT31;18065;55.876;9.830;2024-03-02T00:34:48;20.51;47.26
31443;SHT31;18065;55.876;9.830;2024-03-02T00:37:17;20.51;47.21
31443;SHT31;18065;55.876;9.830;2024-03-02T00:39:51;20.50;47.18
31443;SHT31;18065;55.876;9.830;2024-03-02T00:42:20;20.53;47.17
31443;SHT31;18065;55.876;9.830;2024-03-02T00:44:50;20.50;47.14
31443;SHT31;18065;55.876;9.830;2024-03-02T00:47:19;20.49;47.18
31443;SHT31;18065;55.876;9.830;2024-03-02T00:49:47;20.50;47.18
31443;SHT31;18065;55.876;9.830;2024-03-02T00:52:16;20.51;47.12
31443;SHT31;18065;55.876;9.830;2024-03-02T00:54:45;20.51;47.16
31443;SHT31;18065;55.876;9.830;2024-03-02T00:57:17;20.49;47.15
31443;SHT31;18065;55.876;9.830;2024-03-02T00:59:45;20.49;47.22
31443;SHT31;18065;55.876;9.830;2024-03-02T01:02:14;20.50;47.19
31443;SHT31;18065;55.876;9.830;2024-03-02T01:04:45;20.46;47.20
31443;SHT31;18065;55.876;9.830;2024-03-02T01:07:14;20.49;47.20
31443;SHT31;18065;55.876;9.830;2024-03-02T01:09:43;20.50;47.24
31443;SHT31;18065;55.876;9.830;2024-03-02T01:12:12;20.49;47.21
31443;SHT31;18065;55.876;9.830;2024-03-02T01:14:43;20.47;47.23
31443;SHT31;18065;55.876;9.830;2024-03-02T01:17:12;20.47;47.24
31443;SHT31;18065;55.876;9.830;2024-03-02T01:19:42;20.50;47.24
31443;SHT31;18065;55.876;9.830;2024-03-02T01:22:10;20.49;47.22
31443;SHT31;18065;55.876;9.830;2024-03-02T01:24:39;20.49;47.22
31443;SHT31;18065;55.876;9.830;2024-03-02T01:27:08;20.47;47.28
31443;SHT31;18065;55.876;9.830;2024-03-02T01:29:37;20.49;47.22
31443;SHT31;18065;55.876;9.830;2024-03-02T01:32:08;20.47;47.23
31443;SHT31;18065;55.876;9.830;2024-03-02T01:34:37;20.47;47.27
31443;SHT31;18065;55.876;9.830;2024-03-02T01:37:06;20.44;47.27
31443;SHT31;18065;55.876;9.830;2024-03-02T01:39:35;20.43;47.26
31443;SHT31;18065;55.876;9.830;2024-03-02T01:42:04;20.46;47.22
31443;SHT31;18065;55.876;9.830;2024-03-02T01:44:33;20.46;47.28
31443;SHT31;18065;55.876;9.830;2024-03-02T01:47:02;20.44;47.23
31443;SHT31;18065;55.876;9.830;2024-03-02T01:49:34;20.46;47.24
31443;SHT31;18065;55.876;9.830;2024-03-02T01:52:04;20.43;47.29
31443;SHT31;18065;55.876;9.830;2024-03-02T01:54:33;20.44;47.21
31443;SHT31;18065;55.876;9.830;2024-03-02T01:57:03;20.44;47.22
31443;SHT31;18065;55.876;9.830;2024-03-02T01:59:32;20.43;47.25
31443;SHT31;18065;55.876;9.830;2024-03-02T02:02:01;20.43;47.27
31443;SHT31;18065;55.876;9.830;2024-03-02T02:04:32;20.43;47.20
31443;SHT31;18065;55.876;9.830;2024-03-02T02:07:01;20.43;47.29
31443;SHT31;18065;55.876;9.830;2024-03-02T02:09:30;20.43;47.22
31443;SHT31;18065;55.876;9.830;2024-03-02T02:11:59;20.41;47.26
31443;SHT31;18065;55.876;9.830;2024-03-02T02:14:29;20.40;47.21
31443;SHT31;18065;55.876;9.830;2024-03-02T02:16:58;20.40;47.29
31443;SHT31;18065;55.876;9.830;2024-03-02T02:19:26;20.40;47.33
31443;SHT31;18065;55.876;9.830;2024-03-02T02:21:58;20.40;47.25
31443;SHT31;18065;55.876;9.830;2024-03-02T02:24:27;20.40;47.24
31443;SHT31;18065;55.876;9.830;2024-03-02T02:26:56;20.41;47.19
31443;SHT31;18065;55.876;9.830;2024-03-02T02:29:24;20.40;47.20
31443;SHT31;18065;55.876;9.830;2024-03-02T02:31:53;20.36;47.34
31443;SHT31;18065;55.876;9.830;2024-03-02T02:34:22;20.39;47.29
31443;SHT31;18065;55.876;9.830;2024-03-02T02:36:51;20.37;47.32
31443;SHT31;18065;55.876;9.830;2024-03-02T02:39:23;20.39;47.34
31443;SHT31;18065;55.876;9.830;2024-03-02T02:41:55;20.37;47.26
31443;SHT31;18065;55.876;9.830;2024-03-02T02:44:25;20.36;47.29
31443;SHT31;18065;55.876;9.830;2024-03-02T02:46:54;20.34;47.25
31443;SHT31;18065;55.876;9.830;2024-03-02T02:49:26;20.36;47.32
31443;SHT31;18065;55.876;9.830;2024-03-02T02:51:55;20.37;47.31
31443;SHT31;18065;55.876;9.830;2024-03-02T02:54:26;20.36;47.35
31443;SHT31;18065;55.876;9.830;2024-03-02T02:56:55;20.36;47.32
31443;SHT31;18065;55.876;9.830;2024-03-02T02:59:25;20.37;47.34
31443;SHT31;18065;55.876;9.830;2024-03-02T03:01:53;20.34;47.38
31443;SHT31;18065;55.876;9.830;2024-03-02T03:04:22;20.36;47.39
31443;SHT31;18065;55.876;9.830;2024-03-02T03:06:51;20.34;47.34
31443;SHT31;18065;55.876;9.830;2024-03-02T03:09:20;20.36;47.38
31443;SHT31;18065;55.876;9.830;2024-03-02T03:11:51;20.34;47.45
31443;SHT31;18065;55.876;9.830;2024-03-02T03:14:20;20.34;47.37
31443;SHT31;18065;55.876;9.830;2024-03-02T03:16:49;20.36;47.34
31443;SHT31;18065;55.876;9.830;2024-03-02T03:19:18;20.32;47.42
31443;SHT31;18065;55.876;9.830;2024-03-02T03:21:47;20.36;47.31
31443;SHT31;18065;55.876;9.830;2024-03-02T03:24:15;20.30;47.41
31443;SHT31;18065;55.876;9.830;2024-03-02T03:26:44;20.34;47.34
31443;SHT31;18065;55.876;9.830;2024-03-02T03:29:16;20.30;47.33
31443;SHT31;18065;55.876;9.830;2024-03-02T03:31:44;20.33;47.40
31443;SHT31;18065;55.876;9.830;2024-03-02T03:34:13;20.29;47.36
31443;SHT31;18065;55.876;9.830;2024-03-02T03:36:43;20.30;47.33
31443;SHT31;18065;55.876;9.830;2024-03-02T03:39:11;20.30;47.38
31443;SHT31;18065;55.876;9.830;2024-03-02T03:41:40;20.29;47.36
31443;SHT31;18065;55.876;9.830;2024-03-02T03:44:09;20.28;47.29
31443;SHT31;18065;55.876;9.830;2024-03-02T03:46:40;20.30;47.28
31443;SHT31;18065;55.876;9.830;2024-03-02T03:49:09;20.30;47.35
31443;SHT31;18065;55.876;9.830;2024-03-02T03:51:38;20.28;47.43
31443;SHT31;18065;55.876;9.830;2024-03-02T03:54:07;20.28;47.35
31443;SHT31;18065;55.876;9.830;2024-03-02T03:56:37;20.28;47.37
31443;SHT31;18065;55.876;9.830;2024-03-02T03:59:05;20.28;47.46
31443;SHT31;18065;55.876;9.830;2024-03-02T04:01:34;20.28;47.44
31443;SHT31;18065;55.876;9.830;2024-03-02T04:04:06;20.23;47.43
31443;SHT31;18065;55.876;9.830;2024-03-02T04:06:35;20.26;47.41
31443;SHT31;18065;55.876;9.830;2024-03-02T04:09:04;20.26;47.38
31443;SHT31;18065;55.876;9.830;2024-03-02T04:11:33;20.26;47.38
31443;SHT31;18065;55.876;9.830;2024-03-02T04:14:02;20.25;47.47
31443;SHT31;18065;55.876;9.830;2024-03-02T04:16:31;20.25;47.41
31443;SHT31;18065;55.876;9.830;2024-03-02T04:19:00;20.22;47.38
31443;SHT31;18065;55.876;9.830;2024-03-02T04:21:32;20.25;47.39
31443;SHT31;18065;55.876;9.830;2024-03-02T04:24:01;20.25;47.36
31443;SHT31;18065;55.876;9.830;2024-03-02T04:26:29;20.23;47.40
31443;SHT31;18065;55.876;9.830;2024-03-02T04:28:58;20.25;47.37
31443;SHT31;18065;55.876;9.830;2024-03-02T04:31:27;20.23;47.47
31443;SHT31;18065;55.876;9.830;2024-03-02T04:33:56;20.23;47.51
31443;SHT31;18065;55.876;9.830;2024-03-02T04:36:25;20.23;47.42
31443;SHT31;18065;55.876;9.830;2024-03-02T04:38:56;20.25;47.39
31443;SHT31;18065;55.876;9.830;2024-03-02T04:41:25;20.22;47.46
31443;SHT31;18065;55.876;9.830;2024-03-02T04:43:54;20.23;47.50
31443;SHT31;18065;55.876;9.830;2024-03-02T04:46:23;20.23;47.45
31443;SHT31;18065;55.876;9.830;2024-03-02T04:48:52;20.22;47.37
31443;SHT31;18065;55.876;9.830;2024-03-02T04:51:22;20.19;47.49
31443;SHT31;18065;55.876;9.830;2024-03-02T04:53:51;20.23;47.43
31443;SHT31;18065;55.876;9.830;2024-03-02T04:56:23;20.22;47.43
31443;SHT31;18065;55.876;9.830;2024-03-02T04:59:10;20.19;47.48
31443;SHT31;18065;55.876;9.830;2024-03-02T05:01:39;20.19;47.56
31443;SHT31;18065;55.876;9.830;2024-03-02T05:04:08;20.19;47.40
31443;SHT31;18065;55.876;9.830;2024-03-02T05:06:37;20.20;47.51
31443;SHT31;18065;55.876;9.830;2024-03-02T05:09:07;20.19;47.45
31443;SHT31;18065;55.876;9.830;2024-03-02T05:11:39;20.19;47.39
31443;SHT31;18065;55.876;9.830;2024-03-02T05:14:30;20.18;47.48
31443;SHT31;18065;55.876;9.830;2024-03-02T05:16:59;20.16;47.52
31443;SHT31;18065;55.876;9.830;2024-03-02T05:19:27;20.19;47.47
31443;SHT31;18065;55.876;9.830;2024-03-02T05:21:56;20.18;47.46
31443;SHT31;18065;55.876;9.830;2024-03-02T05:24:25;20.16;47.50
31443;SHT31;18065;55.876;9.830;2024-03-02T05:26:58;20.18;47.50
31443;SHT31;18065;55.876;9.830;2024-03-02T05:29:27;20.19;47.55
31443;SHT31;18065;55.876;9.830;2024-03-02T05:31:55;20.16;47.59
31443;SHT31;18065;55.876;9.830;2024-03-02T05:34:24;20.19;47.60
31443;SHT31;18065;55.876;9.830;2024-03-02T05:36:53;20.15;47.48
31443;SHT31;18065;55.876;9.830;2024-03-02T05:39:23;20.16;47.55
31443;SHT31;18065;55.876;9.830;2024-03-02T05:41:52;20.18;47.61
31443;SHT31;18065;55.876;9.830;2024-03-02T05:44:23;20.15;47.54
31443;SHT31;18065;55.876;9.830;2024-03-02T05:46:52;20.15;47.58
31443;SHT31;18065;55.876;9.830;2024-03-02T05:49:21;20.16;47.44
31443;SHT31;18065;55.876;9.830;2024-03-02T05:51:50;20.16;47.52
31443;SHT31;18065;55.876;9.830;2024-03-02T05:54:19;20.16;47.60
31443;SHT31;18065;55.876;9.830;2024-03-02T05:56:47;20.15;47.56
31443;SHT31;18065;55.876;9.830;2024-03-02T05:59:16;20.13;47.59
31443;SHT31;18065;55.876;9.830;2024-03-02T06:01:48;20.18;47.54
31443;SHT31;18065;55.876;9.830;2024-03-02T06:04:18;20.16;47.54
31443;SHT31;18065;55.876;9.830;2024-03-02T06:06:46;20.16;47.55
31443;SHT31;18065;55.876;9.830;2024-03-02T06:09:15;20.15;47.52
31443;SHT31;18065;55.876;9.830;2024-03-02T06:11:45;20.12;47.50
31443;SHT31;18065;55.876;9.830;2024-03-02T06:14:14;20.13;47.60
31443;SHT31;18065;55.876;9.830;2024-03-02T06:16:43;20.15;47.63
31443;SHT31;18065;55.876;9.830;2024-03-02T06:19:14;20.12;47.52
31443;SHT31;18065;55.876;9.830;2024-03-02T06:21:43;20.12;47.51
31443;SHT31;18065;55.876;9.830;2024-03-02T06:24:12;20.13;47.49
31443;SHT31;18065;55.876;9.830;2024-03-02T06:26:41;20.10;47.70
31443;SHT31;18065;55.876;9.830;2024-03-02T06:29:10;20.13;47.61
31443;SHT31;18065;55.876;9.830;2024-03-02T06:31:39;20.09;47.69
31443;SHT31;18065;55.876;9.830;2024-03-02T06:34:07;20.10;47.65
31443;SHT31;18065;55.876;9.830;2024-03-02T06:36:39;20.12;47.68
31443;SHT31;18065;55.876;9.830;2024-03-02T06:39:08;20.12;47.64
31443;SHT31;18065;55.876;9.830;2024-03-02T06:41:38;20.12;47.62
31443;SHT31;18065;55.876;9.830;2024-03-02T06:44:08;20.09;47.68
31443;SHT31;18065;55.876;9.830;2024-03-02T06:46:37;20.10;47.67
31443;SHT31;18065;55.876;9.830;2024-03-02T06:49:05;20.12;47.64
31443;SHT31;18065;55.876;9.830;2024-03-02T06:51:38;20.09;47.77
31443;SHT31;18065;55.876;9.830;2024-03-02T06:54:08;20.12;47.67
31443;SHT31;18065;55.876;9.830;2024-03-02T06:56:37;20.10;47.69
31443;SHT31;18065;55.876;9.830;2024-03-02T06:59:06;20.09;47.73
31443;SHT31;18065;55.876;9.830;2024-03-02T07:01:34;20.12;47.65
31443;SHT31;18065;55.876;9.830;2024-03-02T07:04:03;20.13;47.72
31443;SHT31;18065;55.876;9.830;2024-03-02T07:06:32;20.13;47.76
31443;SHT31;18065;55.876;9.830;2024-03-02T07:09:04;20.12;47.70
31443;SHT31;18065;55.876;9.830;2024-03-02T07:11:36;20.13;47.82
31443;SHT31;18065;55.876;9.830;2024-03-02T07:14:05;20.13;47.70
31443;SHT31;18065;55.876;9.830;2024-03-02T07:16:34;20.12;47.76
31443;SHT31;18065;55.876;9.830;2024-03-02T07:19:06;20.08;47.78
31443;SHT31;18065;55.876;9.830;2024-03-02T07:21:35;20.09;47.85
31443;SHT31;18065;55.876;9.830;2024-03-02T07:24:07;20.10;47.78
31443;SHT31;18065;55.876;9.830;2024-03-02T07:26:39;20.12;47.81
31443;SHT31;18065;55.876;9.830;2024-03-02T07:29:09;20.12;47.78
31443;SHT31;18065;55.876;9.830;2024-03-02T07:31:37;20.12;47.82
31443;SHT31;18065;55.876;9.830;2024-03-02T07:34:06;20.10;47.86
31443;SHT31;18065;55.876;9.830;2024-03-02T07:36:35;20.12;47.81
31443;SHT31;18065;55.876;9.830;2024-03-02T07:39:07;20.10;47.86
31443;SHT31;18065;55.876;9.830;2024-03-02T07:41:36;20.15;47.83
31443;SHT31;18065;55.876;9.830;2024-03-02T07:44:05;20.13;47.77
31443;SHT31;18065;55.876;9.830;2024-03-02T07:46:34;20.12;47.82
31443;SHT31;18065;55.876;9.830;2024-03-02T07:49:03;20.12;47.85
31443;SHT31;18065;55.876;9.830;2024-03-02T07:51:32;20.13;47.88
31443;SHT31;18065;55.876;9.830;2024-03-02T07:54:00;20.13;47.95
31443;SHT31;18065;55.876;9.830;2024-03-02T07:56:32;20.10;47.87
31443;SHT31;18065;55.876;9.830;2024-03-02T07:59:01;20.12;47.85
31443;SHT31;18065;55.876;9.830;2024-03-02T08:01:31;20.13;47.81
31443;SHT31;18065;55.876;9.830;2024-03-02T08:04:01;20.13;47.87
31443;SHT31;18065;55.876;9.830;2024-03-02T08:06:30;20.15;47.85
31443;SHT31;18065;55.876;9.830;2024-03-02T08:09:00;20.16;47.77
31443;SHT31;18065;55.876;9.830;2024-03-02T08:11:33;20.13;47.87
31443;SHT31;18065;55.876;9.830;2024-03-02T08:14:01;20.15;47.94
31443;SHT31;18065;55.876;9.830;2024-03-02T08:16:30;20.15;47.88
31443;SHT31;18065;55.876;9.830;2024-03-02T08:18:59;20.16;47.82
31443;SHT31;18065;55.876;9.830;2024-03-02T08:21:31;20.13;47.81
31443;SHT31;18065;55.876;9.830;2024-03-02T08:24:02;20.12;47.81
31443;SHT31;18065;55.876;9.830;2024-03-02T08:26:33;20.13;47.81
31443;SHT31;18065;55.876;9.830;2024-03-02T08:29:02;20.13;47.75
31443;SHT31;18065;55.876;9.830;2024-03-02T08:31:31;20.10;47.77
31443;SHT31;18065;55.876;9.830;2024-03-02T08:34:00;20.10;47.77
31443;SHT31;18065;55.876;9.830;2024-03-02T08:36:29;20.13;47.74
31443;SHT31;18065;55.876;9.830;2024-03-02T08:38:58;20.12;47.77
31443;SHT31;18065;55.876;9.830;2024-03-02T08:41:26;20.13;47.70
31443;SHT31;18065;55.876;9.830;2024-03-02T08:43:58;20.10;47.86
31443;SHT31;18065;55.876;9.830;2024-03-02T08:46:27;20.12;47.74
31443;SHT31;18065;55.876;9.830;2024-03-02T08:48:55;20.12;47.67
31443;SHT31;18065;55.876;9.830;2024-03-02T08:51:24;20.13;47.77
31443;SHT31;18065;55.876;9.830;2024-03-02T08:53:53;20.12;47.73
31443;SHT31;18065;55.876;9.830;2024-03-02T08:56:22;20.13;47.64
31443;SHT31;18065;55.876;9.830;2024-03-02T08:58:51;20.13;47.64
31443;SHT31;18065;55.876;9.830;2024-03-02T09:01:23;20.13;47.62
31443;SHT31;18065;55.876;9.830;2024-03-02T09:03:52;20.13;47.65
31443;SHT31;18065;55.876;9.830;2024-03-02T09:06:20;20.12;47.60
31443;SHT31;18065;55.876;9.830;2024-03-02T09:08:49;20.15;47.58
31443;SHT31;18065;55.876;9.830;2024-03-02T09:11:18;20.15;47.58
31443;SHT31;18065;55.876;9.830;2024-03-02T09:13:47;20.12;47.77
31443;SHT31;18065;55.876;9.830;2024-03-02T09:16:16;20.13;47.75
31443;SHT31;18065;55.876;9.830;2024-03-02T09:18:48;20.15;47.55
31443;SHT31;18065;55.876;9.830;2024-03-02T09:21:16;20.10;47.76
31443;SHT31;18065;55.876;9.830;2024-03-02T09:23:45;20.06;47.74
31443;SHT31;18065;55.876;9.830;2024-03-02T09:26:14;20.02;47.80
31443;SHT31;18065;55.876;9.830;2024-03-02T09:28:44;20.04;47.86
31443;SHT31;18065;55.876;9.830;2024-03-02T09:31:12;20.09;47.73
31443;SHT31;18065;55.876;9.830;2024-03-02T09:33:41;20.04;47.81
31443;SHT31;18065;55.876;9.830;2024-03-02T09:36:19;20.05;47.76
31443;SHT31;18065;55.876;9.830;2024-03-02T09:38:49;20.04;47.81
31443;SHT31;18065;55.876;9.830;2024-03-02T09:41:18;20.05;47.76
31443;SHT31;18065;55.876;9.830;2024-03-02T09:43:47;20.02;47.83
31443;SHT31;18065;55.876;9.830;2024-03-02T09:46:16;20.02;47.76
31443;SHT31;18065;55.876;9.830;2024-03-02T09:48:45;20.01;47.83
31443;SHT31;18065;55.876;9.830;2024-03-02T09:51:15;20.02;47.83
31443;SHT31;18065;55.876;9.830;2024-03-02T09:53:48;20.02;47.77
31443;SHT31;18065;55.876;9.830;2024-03-02T09:56:17;20.05;47.87
31443;SHT31;18065;55.876;9.830;2024-03-02T09:58:46;19.99;47.92
31443;SHT31;18065;55.876;9.830;2024-03-02T10:01:15;20.01;47.99
31443;SHT31;18065;55.876;9.830;2024-03-02T10:03:44;20.01;48.01
31443;SHT31;18065;55.876;9.830;2024-03-02T10:06:19;19.98;47.86
31443;SHT31;18065;55.876;9.830;2024-03-02T10:08:51;20.01;47.83
31443;SHT31;18065;55.876;9.830;2024-03-02T10:11:26;19.97;47.91
31443;SHT31;18065;55.876;9.830;2024-03-02T10:14:04;19.98;47.91
31443;SHT31;18065;55.876;9.830;2024-03-02T10:16:35;19.98;47.93
31443;SHT31;18065;55.876;9.830;2024-03-02T10:19:23;19.95;47.90
31443;SHT31;18065;55.876;9.830;2024-03-02T10:21:54;19.97;47.88
31443;SHT31;18065;55.876;9.830;2024-03-02T10:24:26;19.93;48.00
31443;SHT31;18065;55.876;9.830;2024-03-02T10:26:55;19.95;47.95
31443;SHT31;18065;55.876;9.830;2024-03-02T10:29:24;19.99;47.91
31443;SHT31;18065;55.876;9.830;2024-03-02T10:31:54;19.98;47.94
31443;SHT31;18065;55.876;9.830;2024-03-02T10:34:25;19.97;48.01
31443;SHT31;18065;55.876;9.830;2024-03-02T10:36:55;19.99;47.82
31443;SHT31;18065;55.876;9.830;2024-03-02T10:39:27;20.01;47.82
31443;SHT31;18065;55.876;9.830;2024-03-02T10:41:58;19.98;47.92
31443;SHT31;18065;55.876;9.830;2024-03-02T10:44:29;19.99;47.98
31443;SHT31;18065;55.876;9.830;2024-03-02T10:47:00;20.01;47.97
31443;SHT31;18065;55.876;9.830;2024-03-02T10:49:31;19.99;47.99
31443;SHT31;18065;55.876;9.830;2024-03-02T10:52:00;20.01;48.03
31443;SHT31;18065;55.876;9.830;2024-03-02T10:54:32;20.01;48.00
31443;SHT31;18065;55.876;9.830;2024-03-02T10:57:07;20.02;47.95
31443;SHT31;18065;55.876;9.830;2024-03-02T10:59:37;20.01;47.97
31443;SHT31;18065;55.876;9.830;2024-03-02T11:02:14;20.02;47.97
31443;SHT31;18065;55.876;9.830;2024-03-02T11:04:45;20.04;47.92
31443;SHT31;18065;55.876;9.830;2024-03-02T11:07:15;19.99;47.98
31443;SHT31;18065;55.876;9.830;2024-03-02T11:09:54;20.04;48.05
31443;SHT31;18065;55.876;9.830;2024-03-02T11:12:29;20.12;50.06
31443;SHT31;18065;55.876;9.830;2024-03-02T11:14:58;20.18;50.17
31443;SHT31;18065;55.876;9.830;2024-03-02T11:17:28;20.16;50.57
31443;SHT31;18065;55.876;9.830;2024-03-02T11:19:57;20.15;50.96
31443;SHT31;18065;55.876;9.830;2024-03-02T11:22:27;20.13;50.80
31443;SHT31;18065;55.876;9.830;2024-03-02T11:24:58;20.13;50.81
31443;SHT31;18065;55.876;9.830;2024-03-02T11:30:50;20.10;51.08
31443;SHT31;18065;55.876;9.830;2024-03-02T11:33:26;20.16;51.21
31443;SHT31;18065;55.876;9.830;2024-03-02T11:35:56;20.22;51.23
31443;SHT31;18065;55.876;9.830;2024-03-02T11:38:33;20.18;51.29
31443;SHT31;18065;55.876;9.830;2024-03-02T11:41:06;20.18;51.19
31443;SHT31;18065;55.876;9.830;2024-03-02T11:43:40;20.18;51.10
31443;SHT31;18065;55.876;9.830;2024-03-02T11:46:10;20.20;51.17
31443;SHT31;18065;55.876;9.830;2024-03-02T11:48:39;20.25;50.97
31443;SHT31;18065;55.876;9.830;2024-03-02T11:51:08;20.26;50.94
31443;SHT31;18065;55.876;9.830;2024-03-02T11:53:38;20.30;50.75
31443;SHT31;18065;55.876;9.830;2024-03-02T11:56:12;20.30;50.64
31443;SHT31;18065;55.876;9.830;2024-03-02T11:58:42;20.33;50.62
31443;SHT31;18065;55.876;9.830;2024-03-02T12:01:13;20.34;50.60
31443;SHT31;18065;55.876;9.830;2024-03-02T12:03:42;20.34;50.54
31443;SHT31;18065;55.876;9.830;2024-03-02T12:06:11;20.37;50.51
31443;SHT31;18065;55.876;9.830;2024-03-02T12:08:41;20.39;50.43
31443;SHT31;18065;55.876;9.830;2024-03-02T12:11:13;20.39;50.33
31443;SHT31;18065;55.876;9.830;2024-03-02T12:13:51;20.37;50.33
31443;SHT31;18065;55.876;9.830;2024-03-02T12:16:23;20.41;50.25
31443;SHT31;18065;55.876;9.830;2024-03-02T12:18:52;20.43;50.37
31443;SHT31;18065;55.876;9.830;2024-03-02T12:21:21;20.50;50.32
31443;SHT31;18065;55.876;9.830;2024-03-02T12:23:50;20.50;50.27
31443;SHT31;18065;55.876;9.830;2024-03-02T12:26:22;20.49;50.23
31443;SHT31;18065;55.876;9.830;2024-03-02T12:28:51;20.47;50.28
31443;SHT31;18065;55.876;9.830;2024-03-02T12:31:20;20.46;50.31
31443;SHT31;18065;55.876;9.830;2024-03-02T12:33:49;20.51;50.22
31443;SHT31;18065;55.876;9.830;2024-03-02T12:36:18;20.51;50.12
31443;SHT31;18065;55.876;9.830;2024-03-02T12:38:47;20.49;50.25
31443;SHT31;18065;55.876;9.830;2024-03-02T12:41:16;20.51;50.20
31443;SHT31;18065;55.876;9.830;2024-03-02T12:43:48;20.54;50.17
31443;SHT31;18065;55.876;9.830;2024-03-02T12:46:16;20.53;50.19
31443;SHT31;18065;55.876;9.830;2024-03-02T12:48:45;20.51;50.17
31443;SHT31;18065;55.876;9.830;2024-03-02T12:51:14;20.54;50.17
31443;SHT31;18065;55.876;9.830;2024-03-02T12:53:43;20.56;50.16
31443;SHT31;18065;55.876;9.830;2024-03-02T12:56:12;20.56;50.19
31443;SHT31;18065;55.876;9.830;2024-03-02T12:58:42;20.56;50.08
31443;SHT31;18065;55.876;9.830;2024-03-02T13:01:14;20.57;50.23
31443;SHT31;18065;55.876;9.830;2024-03-02T13:03:44;20.57;50.50
31443;SHT31;18065;55.876;9.830;2024-03-02T13:06:13;20.57;50.57
31443;SHT31;18065;55.876;9.830;2024-03-02T13:08:42;20.57;50.57
31443;SHT31;18065;55.876;9.830;2024-03-02T13:11:11;20.59;50.60
31443;SHT31;18065;55.876;9.830;2024-03-02T13:13:40;20.61;50.48
31443;SHT31;18065;55.876;9.830;2024-03-02T13:16:09;20.59;50.52
31443;SHT31;18065;55.876;9.830;2024-03-02T13:18:41;20.63;50.51
31443;SHT31;18065;55.876;9.830;2024-03-02T13:21:10;20.63;50.46
31443;SHT31;18065;55.876;9.830;2024-03-02T13:23:39;20.56;50.49
31443;SHT31;18065;55.876;9.830;2024-03-02T13:26:08;20.60;50.34
31443;SHT31;18065;55.876;9.830;2024-03-02T13:28:38;20.59;50.35
31443;SHT31;18065;55.876;9.830;2024-03-02T13:31:07;20.57;50.30
31443;SHT31;18065;55.876;9.830;2024-03-02T13:33:36;20.57;50.30
31443;SHT31;18065;55.876;9.830;2024-03-02T13:36:08;20.57;50.29
31443;SHT31;18065;55.876;9.830;2024-03-02T13:38:37;20.53;50.22
31443;SHT31;18065;55.876;9.830;2024-03-02T13:41:06;20.56;50.24
31443;SHT31;18065;55.876;9.830;2024-03-02T13:43:36;20.53;50.26
31443;SHT31;18065;55.876;9.830;2024-03-02T13:46:05;20.54;50.25
31443;SHT31;18065;55.876;9.830;2024-03-02T13:48:35;20.54;50.32
31443;SHT31;18065;55.876;9.830;2024-03-02T13:51:07;20.53;50.30
31443;SHT31;18065;55.876;9.830;2024-03-02T13:53:36;20.53;50.72
31443;SHT31;18065;55.876;9.830;2024-03-02T13:56:06;20.56;51.09
31443;SHT31;18065;55.876;9.830;2024-03-02T13:58:35;20.50;51.34
31443;SHT31;18065;55.876;9.830;2024-03-02T14:01:04;20.53;51.69
31443;SHT31;18065;55.876;9.830;2024-03-02T14:03:33;20.54;51.99
31443;SHT31;18065;55.876;9.830;2024-03-02T14:06:03;20.60;52.04
31443;SHT31;18065;55.876;9.830;2024-03-02T14:08:34;20.59;52.19
31443;SHT31;18065;55.876;9.830;2024-03-02T14:11:03;20.56;52.27
31443;SHT31;18065;55.876;9.830;2024-03-02T14:13:33;20.51;52.43
31443;SHT31;18065;55.876;9.830;2024-03-02T14:16:01;20.54;52.52
31443;SHT31;18065;55.876;9.830;2024-03-02T14:18:30;20.56;52.73
31443;SHT31;18065;55.876;9.830;2024-03-02T14:20:59;20.51;52.87
31443;SHT31;18065;55.876;9.830;2024-03-02T14:23:29;20.53;52.95
31443;SHT31;18065;55.876;9.830;2024-03-02T14:26:00;20.53;52.63
31443;SHT31;18065;55.876;9.830;2024-03-02T14:28:29;20.53;52.99
31443;SHT31;18065;55.876;9.830;2024-03-02T14:30:58;20.54;52.99
31443;SHT31;18065;55.876;9.830;2024-03-02T14:33:27;20.57;52.85
31443;SHT31;18065;55.876;9.830;2024-03-02T14:35:57;20.53;53.03
31443;SHT31;18065;55.876;9.830;2024-03-02T14:38:26;20.53;52.76
31443;SHT31;18065;55.876;9.830;2024-03-02T14:40:54;20.53;52.78
31443;SHT31;18065;55.876;9.830;2024-03-02T14:43:26;20.50;52.83
31443;SHT31;18065;55.876;9.830;2024-03-02T14:45:56;20.53;52.80
31443;SHT31;18065;55.876;9.830;2024-03-02T14:48:25;20.51;52.90
31443;SHT31;18065;55.876;9.830;2024-03-02T14:50:54;20.50;52.71
31443;SHT31;18065;55.876;9.830;2024-03-02T14:53:23;20.47;52.74
31443;SHT31;18065;55.876;9.830;2024-03-02T14:55:52;20.51;52.52
31443;SHT31;18065;55.876;9.830;2024-03-02T14:58:21;20.53;52.41
31443;SHT31;18065;55.876;9.830;2024-03-02T15:00:52;20.49;52.43
31443;SHT31;18065;55.876;9.830;2024-03-02T15:03:21;20.51;52.68
31443;SHT31;18065;55.876;9.830;2024-03-02T15:05:50;20.51;52.88
31443;SHT31;18065;55.876;9.830;2024-03-02T15:08:19;20.53;53.14
31443;SHT31;18065;55.876;9.830;2024-03-02T15:10:48;20.57;53.62
31443;SHT31;18065;55.876;9.830;2024-03-02T15:13:17;20.59;53.70
31443;SHT31;18065;55.876;9.830;2024-03-02T15:15:46;20.60;53.73
31443;SHT31;18065;55.876;9.830;2024-03-02T15:18:17;20.61;53.99
31443;SHT31;18065;55.876;9.830;2024-03-02T15:20:46;20.60;53.95
31443;SHT31;18065;55.876;9.830;2024-03-02T15:23:15;20.64;54.33
31443;SHT31;18065;55.876;9.830;2024-03-02T15:25:44;20.66;54.58
31443;SHT31;18065;55.876;9.830;2024-03-02T15:28:13;20.64;54.93
31443;SHT31;18065;55.876;9.830;2024-03-02T15:30:41;20.67;54.90
31443;SHT31;18065;55.876;9.830;2024-03-02T15:33:10;20.67;54.97
31443;SHT31;18065;55.876;9.830;2024-03-02T15:35:42;20.69;54.88
31443;SHT31;18065;55.876;9.830;2024-03-02T15:38:10;20.71;54.91
31443;SHT31;18065;55.876;9.830;2024-03-02T15:40:42;20.73;54.98
31443;SHT31;18065;55.876;9.830;2024-03-02T15:43:11;20.74;55.00
31443;SHT31;18065;55.876;9.830;2024-03-02T15:45:40;20.76;55.01
31443;SHT31;18065;55.876;9.830;2024-03-02T15:48:08;20.77;54.99
31443;SHT31;18065;55.876;9.830;2024-03-02T15:50:37;20.77;55.08